»·PEaware :: N107MR KSAN-KPSP

N107MR :: KSAN-KPSP

FLIGHT INFORMATION

Flight Status: Arrived
Operator: Privately registered:
United States
More flights under this callsign
Pilot: Michael R. (16974)
Aircraft: BEECH AIRCRAFT BARON
(BE58)
More flights by this aircraft type
Origin: KSAN San Diego Intl-Lindbergh
United States
Destination: KPSP Palm Springs Intl
United States
More flights between these airports :: More routes between these airports
Route: JLI V208 TRM
File this flight plan on PilotEdge
Remarks:
Altitude:
(Current/Filed)
9,000ft
Speed:
(Current/Filed)
180kts
Departed: 02-May-18 08:56 PM
Arrived: 02-May-18 09:36 PM
Distance/Time
Traveled:
576nm/0:40
Distance/Time
To Go:
Arrived

Flight Plot

Page will automatically refresh every two minutes.


Map Options




Map Legend


Flown Route
Filed Route
Departure Airport
Arrival Airport
Navaid (VOR, NDB)
Fix

Horizontal Profiles

Position Reports

Time Latitude Longitude Heading Altitude Ground
Speed
02-May-18 20:38 32.732389 -117.177887 194 20ft 0kts
02-May-18 20:39 32.732389 -117.177887 194 20ft 0kts
02-May-18 20:40 32.732389 -117.177887 194 20ft 0kts
02-May-18 20:41 32.732389 -117.177887 194 20ft 0kts
02-May-18 20:42 32.732389 -117.177887 194 20ft 0kts
02-May-18 20:43 32.732389 -117.177887 194 20ft 0kts
02-May-18 20:44 32.732389 -117.177887 194 20ft 0kts
02-May-18 20:45 32.732389 -117.177887 194 20ft 0kts
02-May-18 20:46 32.732389 -117.177887 194 20ft 0kts
02-May-18 20:47 32.732389 -117.177887 194 20ft 0kts
02-May-18 20:48 32.732389 -117.177887 194 20ft 0kts
02-May-18 20:49 32.732389 -117.177887 194 20ft 0kts
02-May-18 20:50 32.732389 -117.177887 194 20ft 0kts
02-May-18 20:51 32.732389 -117.177887 194 20ft 0kts
02-May-18 20:52 32.732389 -117.177887 194 20ft 0kts
02-May-18 20:53 32.731298 -117.176375 115 20ft 11kts
02-May-18 20:54 32.730894 -117.175451 138 20ft 0kts
02-May-18 20:55 32.730874 -117.175430 140 20ft 1kts
02-May-18 20:56 32.733036 -117.187566 286 77ft 122kts
02-May-18 20:57 32.749522 -117.222381 318 1507ft 123kts
02-May-18 20:58 32.776205 -117.248571 323 2888ft 122kts
02-May-18 20:58 32.799381 -117.240076 46 4082ft 127kts
02-May-18 20:59 32.824235 -117.211832 49 5218ft 126kts
02-May-18 21:00 32.843970 -117.177334 50 6283ft 128kts
02-May-18 21:01 32.863877 -117.141760 50 7178ft 129kts
02-May-18 21:02 32.883552 -117.106086 50 8056ft 129kts
02-May-18 21:03 32.903046 -117.070695 50 8899ft 127kts
02-May-18 21:04 32.922403 -117.030270 54 8986ft 150kts
02-May-18 21:05 32.942193 -116.989897 53 8982ft 151kts
02-May-18 21:06 32.963503 -116.946657 53 8973ft 151kts
02-May-18 21:07 32.984755 -116.903539 53 8973ft 151kts
02-May-18 21:08 33.005988 -116.860415 53 8981ft 151kts
02-May-18 21:09 33.029625 -116.812416 54 8985ft 181kts
02-May-18 21:10 33.055548 -116.759516 54 8982ft 186kts
02-May-18 21:11 33.081670 -116.706222 54 8981ft 185kts
02-May-18 21:12 33.106834 -116.654835 54 8986ft 185kts
02-May-18 21:13 33.132495 -116.602365 54 8986ft 186kts
02-May-18 21:14 33.168800 -116.561463 32 8986ft 181kts
02-May-18 21:15 33.209510 -116.526105 32 8986ft 181kts
02-May-18 21:16 33.248114 -116.492553 32 8986ft 181kts
02-May-18 21:17 33.289630 -116.456424 32 8849ft 185kts
02-May-18 21:18 33.330904 -116.420479 32 8848ft 183kts
02-May-18 21:19 33.372002 -116.384603 32 8848ft 183kts
02-May-18 21:20 33.413196 -116.348616 33 8848ft 183kts
02-May-18 21:21 33.453392 -116.313470 33 8848ft 183kts
02-May-18 21:22 33.494441 -116.277529 33 8847ft 183kts
02-May-18 21:23 33.535445 -116.241562 32 8849ft 182kts
02-May-18 21:24 33.576079 -116.209836 359 8825ft 169kts
02-May-18 21:25 33.615316 -116.225518 342 7331ft 143kts
02-May-18 21:26 33.652651 -116.241864 342 5626ft 143kts
02-May-18 21:27 33.685697 -116.264228 303 3802ft 146kts
02-May-18 21:28 33.704190 -116.304799 302 2474ft 125kts
02-May-18 21:29 33.720915 -116.338779 305 2061ft 122kts
02-May-18 21:30 33.737661 -116.376581 299 2285ft 127kts
02-May-18 21:31 33.753264 -116.414940 300 2374ft 138kts
02-May-18 21:32 33.773199 -116.450660 313 1870ft 111kts
02-May-18 21:33 33.793640 -116.472139 323 1259ft 87kts
02-May-18 21:34 33.813883 -116.490549 317 782ft 100kts
02-May-18 21:35 33.829801 -116.504694 35 480ft 7kts
02-May-18 21:36 33.827639 -116.502014 143 480ft 28kts
02-May-18 21:37 33.823758 -116.497535 143 480ft 11kts
02-May-18 21:38 33.823294 -116.497097 144 480ft 0kts
02-May-18 21:39 33.823294 -116.497097 144 480ft 0kts
02-May-18 21:40 40.555618 -124.132538 220 395ft 0kts
02-May-18 21:41 40.555618 -124.132538 220 395ft 0kts
02-May-18 21:42 40.555618 -124.132538 220 395ft 0kts
02-May-18 21:43 40.555618 -124.132538 220 395ft 0kts
02-May-18 21:44 40.555618 -124.132538 220 395ft 0kts
02-May-18 21:45 40.555618 -124.132538 220 395ft 0kts
02-May-18 21:46 40.555618 -124.132538 220 395ft 0kts
02-May-18 21:47 40.555618 -124.132538 220 395ft 0kts
02-May-18 21:48 40.555618 -124.132538 220 395ft 0kts
02-May-18 21:49 40.555618 -124.132538 220 395ft 0kts

Navigation Log

Ident Type
1. KSAN Airport
2. JLI Navaid
3. WARNE Fix
4. TRM Navaid
5. KPSP Airport